sensor_id;sensor_type;location;lat;lon;timestamp;temperature;humidity
33811;DHT22;20119;48.334;16.206;2024-02-21T00:02:20;7.00;99.90
33811;DHT22;20119;48.334;16.206;2024-02-21T00:09:59;7.10;99.90
33811;DHT22;20119;48.334;16.206;2024-02-21T00:12:26;7.00;99.90
33811;DHT22;20119;48.334;16.206;2024-02-21T00:14:53;7.00;99.90
33811;DHT22;20119;48.334;16.206;2024-02-21T00:17:20;7.10;99.90
33811;DHT22;20119;48.334;16.206;2024-02-21T00:19:47;7.10;99.90
33811;DHT22;20119;48.334;16.206;2024-02-21T00:24:49;7.00;99.90
33811;DHT22;20119;48.334;16.206;2024-02-21T00:27:18;7.00;99.90
33811;DHT22;20119;48.334;16.206;2024-02-21T00:29:45;7.10;99.90
33811;DHT22;20119;48.334;16.206;2024-02-21T00:32:12;7.10;99.90
33811;DHT22;20119;48.334;16.206;2024-02-21T00:34:39;7.00;99.90
33811;DHT22;20119;48.334;16.206;2024-02-21T00:37:06;7.00;99.90
33811;DHT22;20119;48.334;16.206;2024-02-21T00:39:33;7.00;99.90
33811;DHT22;20119;48.334;16.206;2024-02-21T00:42:01;7.10;99.90
33811;DHT22;20119;48.334;16.206;2024-02-21T00:44:29;7.00;99.90
33811;DHT22;20119;48.334;16.206;2024-02-21T00:46:56;7.00;99.90
33811;DHT22;20119;48.334;16.206;2024-02-21T00:49:23;7.00;99.90
33811;DHT22;20119;48.334;16.206;2024-02-21T00:51:50;7.00;99.90
33811;DHT22;20119;48.334;16.206;2024-02-21T00:54:17;7.00;99.90
33811;DHT22;20119;48.334;16.206;2024-02-21T00:56:44;7.00;99.90
33811;DHT22;20119;48.334;16.206;2024-02-21T00:59:12;7.00;99.90
33811;DHT22;20119;48.334;16.206;2024-02-21T01:01:40;7.00;99.90
33811;DHT22;20119;48.334;16.206;2024-02-21T01:04:08;7.00;99.90
33811;DHT22;20119;48.334;16.206;2024-02-21T01:06:35;7.00;99.90
33811;DHT22;20119;48.334;16.206;2024-02-21T01:09:03;6.90;99.90
33811;DHT22;20119;48.334;16.206;2024-02-21T01:11:30;6.90;99.90
33811;DHT22;20119;48.334;16.206;2024-02-21T01:13:57;6.90;99.90
33811;DHT22;20119;48.334;16.206;2024-02-21T01:16:24;6.90;99.90
33811;DHT22;20119;48.334;16.206;2024-02-21T01:18:52;6.90;99.90
33811;DHT22;20119;48.334;16.206;2024-02-21T01:21:19;6.90;99.90
33811;DHT22;20119;48.334;16.206;2024-02-21T01:23:46;6.90;99.90
33811;DHT22;20119;48.334;16.206;2024-02-21T01:26:13;6.90;99.90
33811;DHT22;20119;48.334;16.206;2024-02-21T01:28:41;6.90;99.90
33811;DHT22;20119;48.334;16.206;2024-02-21T01:31:08;6.90;99.90
33811;DHT22;20119;48.334;16.206;2024-02-21T01:33:35;7.00;99.90
33811;DHT22;20119;48.334;16.206;2024-02-21T01:36:06;6.90;99.90
33811;DHT22;20119;48.334;16.206;2024-02-21T01:41:09;6.80;99.90
33811;DHT22;20119;48.334;16.206;2024-02-21T01:46:11;6.80;99.90
33811;DHT22;20119;48.334;16.206;2024-02-21T01:48:38;6.70;99.90
33811;DHT22;20119;48.334;16.206;2024-02-21T01:51:07;6.70;99.90
33811;DHT22;20119;48.334;16.206;2024-02-21T01:53:38;6.70;99.90
33811;DHT22;20119;48.334;16.206;2024-02-21T01:56:08;6.70;99.90
33811;DHT22;20119;48.334;16.206;2024-02-21T01:58:37;6.70;99.90
33811;DHT22;20119;48.334;16.206;2024-02-21T02:01:04;6.70;99.90
33811;DHT22;20119;48.334;16.206;2024-02-21T02:03:31;6.60;99.90
33811;DHT22;20119;48.334;16.206;2024-02-21T02:11:13;6.60;99.90
33811;DHT22;20119;48.334;16.206;2024-02-21T02:13:41;6.60;99.90
33811;DHT22;20119;48.334;16.206;2024-02-21T02:16:08;6.50;99.90
33811;DHT22;20119;48.334;16.206;2024-02-21T02:18:35;6.50;99.90
33811;DHT22;20119;48.334;16.206;2024-02-21T02:21:04;6.50;99.90
33811;DHT22;20119;48.334;16.206;2024-02-21T02:23:33;6.60;99.90
33811;DHT22;20119;48.334;16.206;2024-02-21T02:26:01;6.60;99.90
33811;DHT22;20119;48.334;16.206;2024-02-21T02:28:28;6.60;99.90
33811;DHT22;20119;48.334;16.206;2024-02-21T02:30:55;6.60;99.90
33811;DHT22;20119;48.334;16.206;2024-02-21T02:33:22;6.60;99.90
33811;DHT22;20119;48.334;16.206;2024-02-21T02:53:56;6.70;99.90
33811;DHT22;20119;48.334;16.206;2024-02-21T02:56:23;6.60;99.90
33811;DHT22;20119;48.334;16.206;2024-02-21T02:58:50;6.60;99.90
33811;DHT22;20119;48.334;16.206;2024-02-21T03:01:17;6.60;99.90
33811;DHT22;20119;48.334;16.206;2024-02-21T03:03:45;6.60;99.90
33811;DHT22;20119;48.334;16.206;2024-02-21T03:06:13;6.60;99.90
33811;DHT22;20119;48.334;16.206;2024-02-21T03:13:52;6.60;99.90
33811;DHT22;20119;48.334;16.206;2024-02-21T03:16:19;6.50;99.90
33811;DHT22;20119;48.334;16.206;2024-02-21T03:21:22;6.50;99.90
33811;DHT22;20119;48.334;16.206;2024-02-21T03:23:49;6.60;99.90
33811;DHT22;20119;48.334;16.206;2024-02-21T03:26:16;6.50;99.90
33811;DHT22;20119;48.334;16.206;2024-02-21T03:28:43;6.60;99.90
33811;DHT22;20119;48.334;16.206;2024-02-21T03:54:31;6.60;99.90
33811;DHT22;20119;48.334;16.206;2024-02-21T03:56:58;6.60;99.90
33811;DHT22;20119;48.334;16.206;2024-02-21T03:59:25;6.50;99.90
33811;DHT22;20119;48.334;16.206;2024-02-21T04:01:53;6.60;99.90
33811;DHT22;20119;48.334;16.206;2024-02-21T04:04:20;6.60;99.90
33811;DHT22;20119;48.334;16.206;2024-02-21T04:06:47;6.60;99.90
33811;DHT22;20119;48.334;16.206;2024-02-21T04:09:15;6.60;99.90
33811;DHT22;20119;48.334;16.206;2024-02-21T04:11:43;6.60;99.90
33811;DHT22;20119;48.334;16.206;2024-02-21T04:16:45;6.50;99.90
33811;DHT22;20119;48.334;16.206;2024-02-21T04:19:13;6.50;99.90
33811;DHT22;20119;48.334;16.206;2024-02-21T04:21:40;6.40;99.90
33811;DHT22;20119;48.334;16.206;2024-02-21T04:24:07;6.50;99.90
33811;DHT22;20119;48.334;16.206;2024-02-21T04:26:34;6.40;99.90
33811;DHT22;20119;48.334;16.206;2024-02-21T04:29:02;6.50;99.90
33811;DHT22;20119;48.334;16.206;2024-02-21T04:31:31;6.40;99.90
33811;DHT22;20119;48.334;16.206;2024-02-21T04:33:58;6.40;99.90
33811;DHT22;20119;48.334;16.206;2024-02-21T04:36:25;6.40;99.90
33811;DHT22;20119;48.334;16.206;2024-02-21T04:38:53;6.50;99.90
33811;DHT22;20119;48.334;16.206;2024-02-21T04:41:20;6.50;99.90
33811;DHT22;20119;48.334;16.206;2024-02-21T04:43:47;6.50;99.90
33811;DHT22;20119;48.334;16.206;2024-02-21T04:46:15;6.60;99.90
33811;DHT22;20119;48.334;16.206;2024-02-21T04:48:42;6.60;99.90
33811;DHT22;20119;48.334;16.206;2024-02-21T04:51:11;6.50;99.90
33811;DHT22;20119;48.334;16.206;2024-02-21T04:53:38;6.50;99.90
33811;DHT22;20119;48.334;16.206;2024-02-21T05:06:42;6.50;99.90
33811;DHT22;20119;48.334;16.206;2024-02-21T05:09:09;6.50;99.90
33811;DHT22;20119;48.334;16.206;2024-02-21T05:11:37;6.50;99.90
33811;DHT22;20119;48.334;16.206;2024-02-21T05:14:04;6.50;99.90
33811;DHT22;20119;48.334;16.206;2024-02-21T05:16:32;6.50;99.90
33811;DHT22;20119;48.334;16.206;2024-02-21T05:18:59;6.50;99.90
33811;DHT22;20119;48.334;16.206;2024-02-21T05:21:26;6.50;99.90
33811;DHT22;20119;48.334;16.206;2024-02-21T05:23:55;6.50;99.90
33811;DHT22;20119;48.334;16.206;2024-02-21T05:26:22;6.50;99.90
33811;DHT22;20119;48.334;16.206;2024-02-21T05:28:49;6.50;99.90
33811;DHT22;20119;48.334;16.206;2024-02-21T05:31:17;6.50;99.90
33811;DHT22;20119;48.334;16.206;2024-02-21T05:33:45;6.50;99.90
33811;DHT22;20119;48.334;16.206;2024-02-21T05:38:47;6.50;99.90
33811;DHT22;20119;48.334;16.206;2024-02-21T05:41:16;6.50;99.90
33811;DHT22;20119;48.334;16.206;2024-02-21T05:43:43;6.50;99.90
33811;DHT22;20119;48.334;16.206;2024-02-21T05:46:10;6.50;99.90
33811;DHT22;20119;48.334;16.206;2024-02-21T05:53:48;6.60;99.90
33811;DHT22;20119;48.334;16.206;2024-02-21T05:58:52;6.60;99.90
33811;DHT22;20119;48.334;16.206;2024-02-21T06:01:19;6.50;99.90
33811;DHT22;20119;48.334;16.206;2024-02-21T06:06:23;6.60;99.90
33811;DHT22;20119;48.334;16.206;2024-02-21T06:08:50;6.50;99.90
33811;DHT22;20119;48.334;16.206;2024-02-21T06:13:54;6.50;99.90
33811;DHT22;20119;48.334;16.206;2024-02-21T06:21:32;6.60;99.90
33811;DHT22;20119;48.334;16.206;2024-02-21T06:23:59;6.60;99.90
33811;DHT22;20119;48.334;16.206;2024-02-21T06:26:26;6.70;99.90
33811;DHT22;20119;48.334;16.206;2024-02-21T06:28:55;6.60;99.90
33811;DHT22;20119;48.334;16.206;2024-02-21T06:33:58;6.70;99.90
33811;DHT22;20119;48.334;16.206;2024-02-21T06:36:25;6.70;99.90
33811;DHT22;20119;48.334;16.206;2024-02-21T06:38:52;6.70;99.90
33811;DHT22;20119;48.334;16.206;2024-02-21T06:41:19;6.60;99.90
33811;DHT22;20119;48.334;16.206;2024-02-21T06:43:46;6.70;99.90
33811;DHT22;20119;48.334;16.206;2024-02-21T06:46:24;6.70;99.90
33811;DHT22;20119;48.334;16.206;2024-02-21T06:48:52;6.80;99.90
33811;DHT22;20119;48.334;16.206;2024-02-21T06:51:19;6.80;99.90
33811;DHT22;20119;48.334;16.206;2024-02-21T06:53:46;6.80;99.90
33811;DHT22;20119;48.334;16.206;2024-02-21T06:56:13;6.90;99.90
33811;DHT22;20119;48.334;16.206;2024-02-21T06:58:40;7.00;99.90
33811;DHT22;20119;48.334;16.206;2024-02-21T07:01:07;7.00;99.90
33811;DHT22;20119;48.334;16.206;2024-02-21T07:03:37;7.10;99.90
33811;DHT22;20119;48.334;16.206;2024-02-21T07:06:04;7.20;99.90
33811;DHT22;20119;48.334;16.206;2024-02-21T07:08:31;7.20;99.90
33811;DHT22;20119;48.334;16.206;2024-02-21T07:10:58;7.30;99.90
33811;DHT22;20119;48.334;16.206;2024-02-21T07:13:25;7.50;99.90
33811;DHT22;20119;48.334;16.206;2024-02-21T07:15:52;7.60;99.90
33811;DHT22;20119;48.334;16.206;2024-02-21T07:18:20;7.60;99.90
33811;DHT22;20119;48.334;16.206;2024-02-21T07:20:48;7.70;99.90
33811;DHT22;20119;48.334;16.206;2024-02-21T07:28:26;8.00;99.90
33811;DHT22;20119;48.334;16.206;2024-02-21T07:33:28;8.10;99.90
33811;DHT22;20119;48.334;16.206;2024-02-21T07:38:33;8.40;99.90
33811;DHT22;20119;48.334;16.206;2024-02-21T07:41:00;8.40;99.90
33811;DHT22;20119;48.334;16.206;2024-02-21T07:43:27;8.50;99.90
33811;DHT22;20119;48.334;16.206;2024-02-21T07:53:41;9.10;99.90
33811;DHT22;20119;48.334;16.206;2024-02-21T07:56:10;9.10;99.90
33811;DHT22;20119;48.334;16.206;2024-02-21T07:58:37;9.20;99.90
33811;DHT22;20119;48.334;16.206;2024-02-21T08:01:04;9.30;99.90
33811;DHT22;20119;48.334;16.206;2024-02-21T08:03:31;9.60;99.90
33811;DHT22;20119;48.334;16.206;2024-02-21T08:08:43;10.00;99.90
33811;DHT22;20119;48.334;16.206;2024-02-21T08:11:10;10.10;99.90
33811;DHT22;20119;48.334;16.206;2024-02-21T08:13:37;10.60;99.90
33811;DHT22;20119;48.334;16.206;2024-02-21T08:16:04;11.00;99.90
33811;DHT22;20119;48.334;16.206;2024-02-21T08:18:32;10.90;99.90
33811;DHT22;20119;48.334;16.206;2024-02-21T08:21:02;11.10;99.90
33811;DHT22;20119;48.334;16.206;2024-02-21T08:23:29;11.70;99.90
33811;DHT22;20119;48.334;16.206;2024-02-21T08:28:33;12.30;99.90
33811;DHT22;20119;48.334;16.206;2024-02-21T08:33:36;12.00;99.90
33811;DHT22;20119;48.334;16.206;2024-02-21T08:36:03;12.40;99.90
33811;DHT22;20119;48.334;16.206;2024-02-21T08:38:31;12.70;99.90
33811;DHT22;20119;48.334;16.206;2024-02-21T08:40:59;13.00;99.90
33811;DHT22;20119;48.334;16.206;2024-02-21T08:46:03;13.90;99.90
33811;DHT22;20119;48.334;16.206;2024-02-21T08:48:30;14.30;99.90
33811;DHT22;20119;48.334;16.206;2024-02-21T08:50:57;14.60;99.90
33811;DHT22;20119;48.334;16.206;2024-02-21T08:53:24;14.10;99.90
33811;DHT22;20119;48.334;16.206;2024-02-21T08:55:51;13.80;99.90
33811;DHT22;20119;48.334;16.206;2024-02-21T08:58:18;14.70;99.90
33811;DHT22;20119;48.334;16.206;2024-02-21T09:00:49;15.20;99.90
33811;DHT22;20119;48.334;16.206;2024-02-21T09:03:19;14.70;99.90
33811;DHT22;20119;48.334;16.206;2024-02-21T09:08:22;15.00;99.90
33811;DHT22;20119;48.334;16.206;2024-02-21T09:15:53;14.40;99.90
33811;DHT22;20119;48.334;16.206;2024-02-21T09:18:21;14.60;99.90
33811;DHT22;20119;48.334;16.206;2024-02-21T09:23:24;13.90;99.90
33811;DHT22;20119;48.334;16.206;2024-02-21T09:25:51;13.70;99.90
33811;DHT22;20119;48.334;16.206;2024-02-21T09:36:06;13.70;99.90
33811;DHT22;20119;48.334;16.206;2024-02-21T09:38:33;13.40;99.90
33811;DHT22;20119;48.334;16.206;2024-02-21T09:43:35;13.20;99.90
33811;DHT22;20119;48.334;16.206;2024-02-21T09:46:04;13.10;99.90
33811;DHT22;20119;48.334;16.206;2024-02-21T09:48:46;12.80;99.90
33811;DHT22;20119;48.334;16.206;2024-02-21T09:51:19;12.70;99.90
33811;DHT22;20119;48.334;16.206;2024-02-21T09:53:48;12.60;99.90
33811;DHT22;20119;48.334;16.206;2024-02-21T09:56:15;12.50;99.90
33811;DHT22;20119;48.334;16.206;2024-02-21T09:58:42;12.40;99.90
33811;DHT22;20119;48.334;16.206;2024-02-21T10:01:09;12.60;99.90
33811;DHT22;20119;48.334;16.206;2024-02-21T10:08:53;12.90;99.90
33811;DHT22;20119;48.334;16.206;2024-02-21T10:11:23;12.90;99.90
33811;DHT22;20119;48.334;16.206;2024-02-21T10:13:50;13.00;99.90
33811;DHT22;20119;48.334;16.206;2024-02-21T10:16:17;13.30;99.90
33811;DHT22;20119;48.334;16.206;2024-02-21T10:18:44;13.60;99.90
33811;DHT22;20119;48.334;16.206;2024-02-21T10:21:11;13.40;99.90
33811;DHT22;20119;48.334;16.206;2024-02-21T10:26:13;13.20;99.90
33811;DHT22;20119;48.334;16.206;2024-02-21T10:28:41;13.10;99.90
33811;DHT22;20119;48.334;16.206;2024-02-21T10:31:11;13.30;99.90
33811;DHT22;20119;48.334;16.206;2024-02-21T10:38:48;13.20;99.90
33811;DHT22;20119;48.334;16.206;2024-02-21T10:41:19;13.00;99.90
33811;DHT22;20119;48.334;16.206;2024-02-21T10:46:23;12.60;99.90
33811;DHT22;20119;48.334;16.206;2024-02-21T10:49:01;12.40;99.90
33811;DHT22;20119;48.334;16.206;2024-02-21T10:51:33;12.50;99.90
33811;DHT22;20119;48.334;16.206;2024-02-21T10:59:13;11.90;99.90
33811;DHT22;20119;48.334;16.206;2024-02-21T11:01:40;11.80;99.90
33811;DHT22;20119;48.334;16.206;2024-02-21T11:04:08;11.90;99.90
33811;DHT22;20119;48.334;16.206;2024-02-21T11:09:13;11.80;99.90
33811;DHT22;20119;48.334;16.206;2024-02-21T11:11:41;11.90;99.90
33811;DHT22;20119;48.334;16.206;2024-02-21T11:16:45;12.10;99.90
33811;DHT22;20119;48.334;16.206;2024-02-21T11:19:19;12.30;99.90
33811;DHT22;20119;48.334;16.206;2024-02-21T11:21:47;12.20;99.90
33811;DHT22;20119;48.334;16.206;2024-02-21T11:24:25;12.20;99.90
33811;DHT22;20119;48.334;16.206;2024-02-21T11:29:30;12.30;99.90
33811;DHT22;20119;48.334;16.206;2024-02-21T11:31:59;12.30;99.90
33811;DHT22;20119;48.334;16.206;2024-02-21T11:34:29;12.20;99.90
33811;DHT22;20119;48.334;16.206;2024-02-21T11:36:56;12.20;99.90
33811;DHT22;20119;48.334;16.206;2024-02-21T11:39:24;12.30;99.90
33811;DHT22;20119;48.334;16.206;2024-02-21T11:42:02;12.30;99.90
33811;DHT22;20119;48.334;16.206;2024-02-21T11:44:30;12.40;99.90
33811;DHT22;20119;48.334;16.206;2024-02-21T11:46:58;12.50;99.90
33811;DHT22;20119;48.334;16.206;2024-02-21T11:49:25;12.50;99.90
33811;DHT22;20119;48.334;16.206;2024-02-21T11:52:02;12.30;99.90
33811;DHT22;20119;48.334;16.206;2024-02-21T11:54:30;12.30;99.90
33811;DHT22;20119;48.334;16.206;2024-02-21T11:56:58;12.20;99.90
33811;DHT22;20119;48.334;16.206;2024-02-21T12:07:07;12.10;99.90
33811;DHT22;20119;48.334;16.206;2024-02-21T12:09:34;12.20;99.90
33811;DHT22;20119;48.334;16.206;2024-02-21T12:12:03;12.30;99.90
33811;DHT22;20119;48.334;16.206;2024-02-21T12:14:32;12.30;99.90
33811;DHT22;20119;48.334;16.206;2024-02-21T12:16:59;12.40;99.90
33811;DHT22;20119;48.334;16.206;2024-02-21T12:19:29;12.40;99.90
33811;DHT22;20119;48.334;16.206;2024-02-21T12:21:58;12.60;99.90
33811;DHT22;20119;48.334;16.206;2024-02-21T12:24:28;12.70;99.90
33811;DHT22;20119;48.334;16.206;2024-02-21T12:26:56;12.90;99.90
33811;DHT22;20119;48.334;16.206;2024-02-21T12:29:24;12.90;99.90
33811;DHT22;20119;48.334;16.206;2024-02-21T12:31:52;12.70;99.90
33811;DHT22;20119;48.334;16.206;2024-02-21T12:34:19;12.70;99.90
33811;DHT22;20119;48.334;16.206;2024-02-21T12:36:47;12.70;99.90
33811;DHT22;20119;48.334;16.206;2024-02-21T12:41:51;12.80;99.90
33811;DHT22;20119;48.334;16.206;2024-02-21T12:44:18;12.80;99.90
33811;DHT22;20119;48.334;16.206;2024-02-21T12:46:46;12.90;99.90
33811;DHT22;20119;48.334;16.206;2024-02-21T12:49:17;13.00;99.90
33811;DHT22;20119;48.334;16.206;2024-02-21T12:51:44;13.20;99.90
33811;DHT22;20119;48.334;16.206;2024-02-21T12:54:13;13.10;99.90
33811;DHT22;20119;48.334;16.206;2024-02-21T12:56:40;13.20;99.90
33811;DHT22;20119;48.334;16.206;2024-02-21T12:59:09;13.30;99.90
33811;DHT22;20119;48.334;16.206;2024-02-21T13:01:36;13.20;99.90
33811;DHT22;20119;48.334;16.206;2024-02-21T13:04:03;13.10;99.90
33811;DHT22;20119;48.334;16.206;2024-02-21T13:06:30;13.40;99.90
33811;DHT22;20119;48.334;16.206;2024-02-21T13:08:57;13.10;99.90
33811;DHT22;20119;48.334;16.206;2024-02-21T13:11:25;13.20;99.90
33811;DHT22;20119;48.334;16.206;2024-02-21T13:13:56;13.30;99.90
33811;DHT22;20119;48.334;16.206;2024-02-21T13:16:24;13.20;99.90
33811;DHT22;20119;48.334;16.206;2024-02-21T13:18:52;13.30;99.90
33811;DHT22;20119;48.334;16.206;2024-02-21T13:21:20;13.30;99.90
33811;DHT22;20119;48.334;16.206;2024-02-21T13:23:47;13.40;99.90
33811;DHT22;20119;48.334;16.206;2024-02-21T13:26:14;13.50;99.90
33811;DHT22;20119;48.334;16.206;2024-02-21T13:28:41;13.60;99.90
33811;DHT22;20119;48.334;16.206;2024-02-21T13:31:10;13.40;99.90
33811;DHT22;20119;48.334;16.206;2024-02-21T13:33:38;13.20;99.90
33811;DHT22;20119;48.334;16.206;2024-02-21T13:36:06;13.20;99.90
33811;DHT22;20119;48.334;16.206;2024-02-21T13:38:33;13.20;99.90
33811;DHT22;20119;48.334;16.206;2024-02-21T13:41:00;13.10;99.90
33811;DHT22;20119;48.334;16.206;2024-02-21T13:43:27;13.00;99.90
33811;DHT22;20119;48.334;16.206;2024-02-21T13:45:57;13.00;99.90
33811;DHT22;20119;48.334;16.206;2024-02-21T13:48:24;13.10;99.90
33811;DHT22;20119;48.334;16.206;2024-02-21T13:50:54;13.10;99.90
33811;DHT22;20119;48.334;16.206;2024-02-21T13:53:21;12.90;99.90
33811;DHT22;20119;48.334;16.206;2024-02-21T13:55:48;13.00;99.90
33811;DHT22;20119;48.334;16.206;2024-02-21T13:58:16;13.00;99.90
33811;DHT22;20119;48.334;16.206;2024-02-21T14:00:43;13.00;99.90
33811;DHT22;20119;48.334;16.206;2024-02-21T14:03:10;13.00;99.90
33811;DHT22;20119;48.334;16.206;2024-02-21T14:05:37;12.90;99.90
33811;DHT22;20119;48.334;16.206;2024-02-21T14:08:07;12.90;99.90
33811;DHT22;20119;48.334;16.206;2024-02-21T14:10:34;13.10;99.90
33811;DHT22;20119;48.334;16.206;2024-02-21T14:13:03;12.90;99.90
33811;DHT22;20119;48.334;16.206;2024-02-21T14:15:30;12.90;99.90
33811;DHT22;20119;48.334;16.206;2024-02-21T14:17:57;12.90;99.90
33811;DHT22;20119;48.334;16.206;2024-02-21T14:20:24;13.00;99.90
33811;DHT22;20119;48.334;16.206;2024-02-21T14:22:51;13.10;99.90
33811;DHT22;20119;48.334;16.206;2024-02-21T14:25:20;13.10;99.90
33811;DHT22;20119;48.334;16.206;2024-02-21T14:27:47;13.30;99.90
33811;DHT22;20119;48.334;16.206;2024-02-21T14:30:14;13.30;99.90
33811;DHT22;20119;48.334;16.206;2024-02-21T14:32:43;13.20;99.90
33811;DHT22;20119;48.334;16.206;2024-02-21T14:35:11;13.40;99.90
33811;DHT22;20119;48.334;16.206;2024-02-21T14:37:38;13.20;99.90
33811;DHT22;20119;48.334;16.206;2024-02-21T14:40:06;13.20;99.90
33811;DHT22;20119;48.334;16.206;2024-02-21T14:42:35;13.20;99.90
33811;DHT22;20119;48.334;16.206;2024-02-21T14:45:02;13.10;99.90
33811;DHT22;20119;48.334;16.206;2024-02-21T14:47:30;13.00;99.90
33811;DHT22;20119;48.334;16.206;2024-02-21T14:49:57;12.90;99.90
33811;DHT22;20119;48.334;16.206;2024-02-21T14:52:25;12.70;99.90
33811;DHT22;20119;48.334;16.206;2024-02-21T14:54:53;12.70;99.90
33811;DHT22;20119;48.334;16.206;2024-02-21T14:57:20;12.70;99.90
33811;DHT22;20119;48.334;16.206;2024-02-21T14:59:49;12.70;99.90
33811;DHT22;20119;48.334;16.206;2024-02-21T15:02:21;12.60;99.90
33811;DHT22;20119;48.334;16.206;2024-02-21T15:09:56;12.40;99.90
33811;DHT22;20119;48.334;16.206;2024-02-21T15:12:23;12.30;99.90
33811;DHT22;20119;48.334;16.206;2024-02-21T15:14:52;12.30;99.90
33811;DHT22;20119;48.334;16.206;2024-02-21T15:17:19;12.20;99.90
33811;DHT22;20119;48.334;16.206;2024-02-21T15:19:46;12.20;99.90
33811;DHT22;20119;48.334;16.206;2024-02-21T15:22:13;12.10;99.90
33811;DHT22;20119;48.334;16.206;2024-02-21T15:24:41;11.90;99.90
33811;DHT22;20119;48.334;16.206;2024-02-21T15:27:08;11.80;99.90
33811;DHT22;20119;48.334;16.206;2024-02-21T15:29:36;11.70;99.90
33811;DHT22;20119;48.334;16.206;2024-02-21T15:32:05;11.70;99.90
33811;DHT22;20119;48.334;16.206;2024-02-21T15:37:08;11.60;99.90
33811;DHT22;20119;48.334;16.206;2024-02-21T15:39:36;11.50;99.90
33811;DHT22;20119;48.334;16.206;2024-02-21T15:42:03;11.40;99.90
33811;DHT22;20119;48.334;16.206;2024-02-21T15:44:30;11.30;99.90
33811;DHT22;20119;48.334;16.206;2024-02-21T15:46:58;11.20;99.90
33811;DHT22;20119;48.334;16.206;2024-02-21T15:49:26;11.10;99.90
33811;DHT22;20119;48.334;16.206;2024-02-21T15:51:53;11.00;99.90
33811;DHT22;20119;48.334;16.206;2024-02-21T15:56:56;10.90;99.90
33811;DHT22;20119;48.334;16.206;2024-02-21T15:59:23;10.80;99.90
33811;DHT22;20119;48.334;16.206;2024-02-21T16:04:27;10.80;99.90
33811;DHT22;20119;48.334;16.206;2024-02-21T16:06:56;10.60;99.90
33811;DHT22;20119;48.334;16.206;2024-02-21T16:09:25;10.50;99.90
33811;DHT22;20119;48.334;16.206;2024-02-21T16:11:54;10.40;99.90
33811;DHT22;20119;48.334;16.206;2024-02-21T16:24:44;9.90;99.90
33811;DHT22;20119;48.334;16.206;2024-02-21T16:27:11;9.70;99.90
33811;DHT22;20119;48.334;16.206;2024-02-21T16:29:38;9.60;99.90
33811;DHT22;20119;48.334;16.206;2024-02-21T16:34:41;9.30;99.90
33811;DHT22;20119;48.334;16.206;2024-02-21T16:37:08;9.10;99.90
33811;DHT22;20119;48.334;16.206;2024-02-21T16:39:35;9.00;99.90
33811;DHT22;20119;48.334;16.206;2024-02-21T16:44:39;8.90;99.90
33811;DHT22;20119;48.334;16.206;2024-02-21T16:47:06;8.80;99.90
33811;DHT22;20119;48.334;16.206;2024-02-21T16:49:34;8.80;99.90
33811;DHT22;20119;48.334;16.206;2024-02-21T16:54:36;8.70;99.90
33811;DHT22;20119;48.334;16.206;2024-02-21T16:57:03;8.70;99.90
33811;DHT22;20119;48.334;16.206;2024-02-21T16:59:31;8.60;99.90
33811;DHT22;20119;48.334;16.206;2024-02-21T17:01:59;8.50;99.90
33811;DHT22;20119;48.334;16.206;2024-02-21T17:04:27;8.50;99.90
33811;DHT22;20119;48.334;16.206;2024-02-21T17:06:54;8.40;99.90
33811;DHT22;20119;48.334;16.206;2024-02-21T17:09:23;8.30;99.90
33811;DHT22;20119;48.334;16.206;2024-02-21T17:11:50;8.20;99.90
33811;DHT22;20119;48.334;16.206;2024-02-21T17:14:19;8.20;99.90
33811;DHT22;20119;48.334;16.206;2024-02-21T17:16:47;8.20;99.90
33811;DHT22;20119;48.334;16.206;2024-02-21T17:19:16;8.20;99.90
33811;DHT22;20119;48.334;16.206;2024-02-21T17:21:43;8.30;99.90
33811;DHT22;20119;48.334;16.206;2024-02-21T17:24:10;8.50;99.90
33811;DHT22;20119;48.334;16.206;2024-02-21T17:26:37;8.70;99.90
33811;DHT22;20119;48.334;16.206;2024-02-21T17:29:04;8.80;99.90
33811;DHT22;20119;48.334;16.206;2024-02-21T17:31:32;8.80;99.90
33811;DHT22;20119;48.334;16.206;2024-02-21T17:33:59;8.90;99.90
33811;DHT22;20119;48.334;16.206;2024-02-21T17:36:28;9.00;99.90
33811;DHT22;20119;48.334;16.206;2024-02-21T17:38:55;8.90;99.90
33811;DHT22;20119;48.334;16.206;2024-02-21T17:41:22;9.00;99.90
33811;DHT22;20119;48.334;16.206;2024-02-21T17:43:49;9.00;99.90
33811;DHT22;20119;48.334;16.206;2024-02-21T17:46:17;8.90;99.90
33811;DHT22;20119;48.334;16.206;2024-02-21T17:48:44;8.90;99.90
33811;DHT22;20119;48.334;16.206;2024-02-21T17:51:12;9.00;99.90
33811;DHT22;20119;48.334;16.206;2024-02-21T17:53:40;9.00;99.90
33811;DHT22;20119;48.334;16.206;2024-02-21T17:56:07;9.10;99.90
33811;DHT22;20119;48.334;16.206;2024-02-21T17:58:34;9.10;99.90
33811;DHT22;20119;48.334;16.206;2024-02-21T18:01:01;9.00;99.90
33811;DHT22;20119;48.334;16.206;2024-02-21T18:06:04;8.90;99.90
33811;DHT22;20119;48.334;16.206;2024-02-21T18:08:31;9.00;99.90
33811;DHT22;20119;48.334;16.206;2024-02-21T18:11:00;9.00;99.90
33811;DHT22;20119;48.334;16.206;2024-02-21T18:13:27;8.90;99.90
33811;DHT22;20119;48.334;16.206;2024-02-21T18:18:28;9.00;99.90
33811;DHT22;20119;48.334;16.206;2024-02-21T18:20:56;9.10;99.90
33811;DHT22;20119;48.334;16.206;2024-02-21T18:23:23;9.10;99.90
33811;DHT22;20119;48.334;16.206;2024-02-21T18:25:53;9.00;99.90
33811;DHT22;20119;48.334;16.206;2024-02-21T18:30:59;8.90;99.90
33811;DHT22;20119;48.334;16.206;2024-02-21T18:33:26;8.90;99.90
33811;DHT22;20119;48.334;16.206;2024-02-21T18:35:54;9.00;99.90
33811;DHT22;20119;48.334;16.206;2024-02-21T18:38:21;9.10;99.90
33811;DHT22;20119;48.334;16.206;2024-02-21T18:40:48;9.00;99.90
33811;DHT22;20119;48.334;16.206;2024-02-21T18:43:15;8.90;99.90
33811;DHT22;20119;48.334;16.206;2024-02-21T18:45:44;8.80;99.90
33811;DHT22;20119;48.334;16.206;2024-02-21T18:48:11;8.90;99.90
33811;DHT22;20119;48.334;16.206;2024-02-21T18:50:41;8.90;99.90
33811;DHT22;20119;48.334;16.206;2024-02-21T18:53:08;8.80;99.90
33811;DHT22;20119;48.334;16.206;2024-02-21T18:55:35;8.90;99.90
33811;DHT22;20119;48.334;16.206;2024-02-21T18:58:02;8.90;99.90
33811;DHT22;20119;48.334;16.206;2024-02-21T19:00:32;8.90;99.90
33811;DHT22;20119;48.334;16.206;2024-02-21T19:03:01;8.90;99.90
33811;DHT22;20119;48.334;16.206;2024-02-21T19:05:28;8.90;99.90
33811;DHT22;20119;48.334;16.206;2024-02-21T19:07:55;9.00;99.90
33811;DHT22;20119;48.334;16.206;2024-02-21T19:10:22;8.90;99.90
33811;DHT22;20119;48.334;16.206;2024-02-21T19:12:49;8.90;99.90
33811;DHT22;20119;48.334;16.206;2024-02-21T19:15:23;8.60;99.90
33811;DHT22;20119;48.334;16.206;2024-02-21T19:20:27;8.30;99.90
33811;DHT22;20119;48.334;16.206;2024-02-21T19:22:54;8.00;99.90